Time;durP1;ratioP1;P1;durP2;ratioP2;P2;SDS_P1;SDS_P2;PMS_P1;PMS_P2;Temp;Humidity;BMP_temperature;BMP_pressure;BME280_temperature;BME280_humidity;BME280_pressure;Samples;Min_cycle;Max_cycle;Signal;HPM_P1;HPM_P2
2022/08/22 00:00:37;;;;;;;;;;;;;;;;;;;;;
2022/08/22 00:06:45;;;;;;;;;;;;;;;;;;6078697;23;19927;-83
2022/08/22 00:09:45;;;;;;;;;;;;;;;;;;6050544;23;20375;-83
2022/08/22 00:15:00;;;;;;;;;;;;;;;;;;6159435;23;20503;-83
2022/08/22 00:17:28;;;;;;;;;;;;;;;;;;6166859;23;20264;-83
2022/08/22 00:23:06;;;;;;;;;;;;;;;;;;;;;
2022/08/22 00:25:41;;;;;;;;;;;;;;;;;;6194862;23;20378;-83
2022/08/22 00:34:07;;;;;;;;;;;;;;;;;;6247626;22;19984;-83
2022/08/22 00:42:32;;;;;;;;;;;;;;;;;;6235399;22;20029;-83
2022/08/22 00:48:07;;;;;;;;;;;;;;;;;;6175518;23;19923;-83
2022/08/22 00:50:35;;;;;;;;;;;;;;;;;;6128432;22;19916;-83
2022/08/22 01:01:29;;;;;;;;;;;;;;;;;;6328784;22;19922;-83
2022/08/22 01:09:54;;;;;;;;;;;;;;;;;;6297009;22;20005;-83
2022/08/22 01:12:38;;;;;;;;;;;;;;;;;;6266283;22;19960;-83
2022/08/22 01:15:18;;;;;;;;;;;;;;;;;;6292435;22;19926;-82
2022/08/22 01:17:53;;;;;;;;;;;;;;;;;;6265177;22;20394;-83
2022/08/22 01:57:15;;;;;;;;;;;;;;;;;;6329964;22;19918;-82
2022/08/22 01:59:51;;;;;;;;;;;;;;;;;;;;;
2022/08/22 02:02:17;;;;;;;;;;;;;;;;;;6294212;22;19918;-82
2022/08/22 02:04:44;;;;;;;;;;;;;;;;;;6291154;22;19926;-83
2022/08/22 02:07:13;;;;;;;;;;;;;;;;;;6264382;22;20247;-83
2022/08/22 02:09:41;;;;;;;;;;;;;;;;;;6292006;22;19989;-84
2022/08/22 02:12:10;;;;;;;;;;;;;;;;;;6268412;22;19926;-84
2022/08/22 02:14:39;;;;;;;;;;;;;;;;;;6290081;22;20247;-84
2022/08/22 02:17:05;;;;;;;;;;;;;;;;;;6265298;22;19923;-84
2022/08/22 02:22:40;;;;;;;;;;;;;;;;;;6281823;22;20250;-86
2022/08/22 02:25:09;;;;;;;;;;;;;;;;;;6266280;22;20506;-86
2022/08/22 02:27:38;;;;;;;;;;;;;;;;;;6316889;22;19918;-86
2022/08/22 02:30:05;;;;;;;;;;;;;;;;;;6267040;22;20230;-86
2022/08/22 02:32:31;;;;;;;;;;;;;;;;;;6290453;22;19945;-86
2022/08/22 02:35:18;;;;;;;;;;;;;;;;;;6265136;22;19957;-86
2022/08/22 02:37:46;;;;;;;;;;;;;;;;;;6317437;22;20277;-87
2022/08/22 02:40:26;;;;;;;;;;;;;;;;;;6290723;22;19922;-86
2022/08/22 02:42:57;;;;;;;;;;;;;;;;;;6293815;22;19927;-86
2022/08/22 02:48:41;;;;;;;;;;;;;;;;;;6284871;22;19922;-84
2022/08/22 02:51:07;;;;;;;;;;;;;;;;;;6235285;22;19926;-86
2022/08/22 02:57:08;;;;;;;;;;;;;;;;;;6304001;22;19995;-85
2022/08/22 03:00:17;;;;;;;;;;;;;;;;;;6148315;23;19931;-84
2022/08/22 03:02:43;;;;;;;;;;;;;;;;;;6117327;23;20166;-84
2022/08/22 03:07:55;;;;;;;;;;;;;;;;;;6316157;22;19970;-84
2022/08/22 03:10:25;;;;;;;;;;;;;;;;;;6296386;22;20001;-84
2022/08/22 03:12:54;;;;;;;;;;;;;;;;;;6298056;22;20197;-85
2022/08/22 03:18:24;;;;;;;;;;;;;;;;;;6333069;22;20009;-84
2022/08/22 03:27:06;;;;;;;;;;;;;;;;;;6304054;22;20402;-84
2022/08/22 03:29:42;;;;;;;;;;;;;;;;;;;;;
2022/08/22 03:32:08;;;;;;;;;;;;;;;;;;6257588;22;19925;-85
2022/08/22 03:34:34;;;;;;;;;;;;;;;;;;6208692;22;19919;-84
2022/08/22 03:37:02;;;;;;;;;;;;;;;;;;6232343;22;19915;-84
2022/08/22 03:39:40;;;;;;;;;;;;;;;;;;6257290;22;19919;-87
2022/08/22 03:42:21;;;;;;;;;;;;;;;;;;6268482;22;19923;-88
2022/08/22 03:44:53;;;;;;;;;;;;;;;;;;6233927;22;20411;-88
2022/08/22 03:47:26;;;;;;;;;;;;;;;;;;6205845;22;19919;-88
2022/08/22 03:55:58;;;;;;;;;;;;;;;;;;6183003;23;20367;-88
2022/08/22 03:58:27;;;;;;;;;;;;;;;;;;6224909;23;19926;-84
2022/08/22 04:07:47;;;;;;;;;;;;;;;;;;6165183;23;19928;-84
2022/08/22 04:10:24;;;;;;;;;;;;;;;;;;6199986;23;19923;-84
2022/08/22 04:13:17;;;;;;;;;;;;;;;;;;6225645;23;19919;-83
2022/08/22 04:15:48;;;;;;;;;;;;;;;;;;6197958;23;19919;-83
2022/08/22 04:18:14;;;;;;;;;;;;;;;;;;6200625;23;19915;-84
2022/08/22 04:27:04;;;;;;;;;;;;;;;;;;;;;
2022/08/22 04:29:33;;;;;;;;;;;;;;;;;;6197906;23;19923;-83
2022/08/22 04:32:02;;;;;;;;;;;;;;;;;;6197669;23;19919;-84
2022/08/22 04:37:58;;;;;;;;;;;;;;;;;;6235886;23;20391;-85
2022/08/22 04:43:33;;;;;;;;;;;;;;;;;;6130351;23;19927;-84
2022/08/22 04:46:09;;;;;;;;;;;;;;;;;;6140894;23;19968;-85
2022/08/22 04:48:39;;;;;;;;;;;;;;;;;;6113237;23;19920;-84
2022/08/22 04:54:31;;;;;;;;;;;;;;;;;;6024705;23;19925;-84
2022/08/22 04:57:25;;;;;;;;;;;;;;;;;;5945721;24;20370;-84
2022/08/22 04:59:56;;;;;;;;;;;;;;;;;;6024150;23;19996;-84
2022/08/22 05:02:26;;;;;;;;;;;;;;;;;;6101975;23;19935;-86
2022/08/22 05:12:52;;;;;;;;;;;;;;;;;;6261341;22;19929;-83
2022/08/22 05:15:34;;;;;;;;;;;;;;;;;;6307314;22;19991;-83
2022/08/22 05:18:06;;;;;;;;;;;;;;;;;;6294270;22;19922;-83
2022/08/22 05:20:38;;;;;;;;;;;;;;;;;;6264652;22;20007;-83
2022/08/22 05:25:58;;;;;;;;;;;;;;;;;;6321732;22;19918;-83
2022/08/22 05:28:42;;;;;;;;;;;;;;;;;;6292373;22;20499;-83
2022/08/22 05:31:29;;;;;;;;;;;;;;;;;;6294248;22;19945;-83
2022/08/22 05:34:09;;;;;;;;;;;;;;;;;;6260829;22;20008;-83
2022/08/22 05:37:00;;;;;;;;;;;;;;;;;;6267339;22;19961;-82
2022/08/22 05:39:35;;;;;;;;;;;;;;;;;;6237058;22;19984;-82
2022/08/22 05:45:09;;;;;;;;;;;;;;;;;;6204382;23;20651;-82
2022/08/22 05:47:35;;;;;;;;;;;;;;;;;;6252346;22;19956;-82
2022/08/22 05:50:01;;;;;;;;;;;;;;;;;;6235901;22;19915;-83
2022/08/22 05:52:27;;;;;;;;;;;;;;;;;;6230685;22;19949;-83
2022/08/22 05:54:59;;;;;;;;;;;;;;;;;;6208610;22;19926;-83
2022/08/22 05:57:25;;;;;;;;;;;;;;;;;;6237195;22;20240;-83
2022/08/22 05:59:57;;;;;;;;;;;;;;;;;;6262562;22;19919;-83
2022/08/22 06:02:27;;;;;;;;;;;;;;;;;;6262242;22;19950;-82
2022/08/22 06:14:15;;;;;;;;;;;;;;;;;;6152325;23;19928;-83
2022/08/22 06:19:58;;;;;;;;;;;;;;;;;;6098995;23;20387;-83
2022/08/22 06:22:35;;;;;;;;;;;;;;;;;;6168075;23;19923;-83
2022/08/22 06:25:04;;;;;;;;;;;;;;;;;;6224327;23;19927;-83
2022/08/22 06:27:30;;;;;;;;;;;;;;;;;;6201113;23;19920;-84
2022/08/22 06:30:01;;;;;;;;;;;;;;;;;;6228237;23;19920;-82
2022/08/22 06:32:49;;;;;;;;;;;;;;;;;;6199515;23;20264;-83
2022/08/22 06:41:14;;;;;;;;;;;;;;;;;;6174219;23;19969;-84
2022/08/22 06:57:10;;;;;;;;;;;;;;;;;;6323817;22;19961;-82
2022/08/22 07:17:38;;;;;;;;;;;;;;;;;;6195207;23;19916;-84
2022/08/22 07:26:29;;;;;;;;;;;;;;;;;;5918682;24;19962;-84
2022/08/22 07:28:55;;;;;;;;;;;;;;;;;;5947088;23;20259;-84
2022/08/22 07:31:27;;;;;;;;;;;;;;;;;;5946731;23;19930;-84
2022/08/22 07:33:54;;;;;;;;;;;;;;;;;;5947301;23;19922;-84
2022/08/22 07:36:22;;;;;;;;;;;;;;;;;;5958470;23;19910;-84
2022/08/22 08:05:07;;;;;;;;;;;;;;;;;;6214468;22;19930;-85
2022/08/22 08:10:52;;;;;;;;;;;;;;;;;;6334381;22;19917;-84
2022/08/22 08:16:35;;;;;;;;;;;;;;;;;;;;;
2022/08/22 08:22:03;;;;;;;;;;;;;;;;;;6306726;22;19986;-84
2022/08/22 08:24:29;;;;;;;;;;;;;;;;;;6266336;22;19922;-84
2022/08/22 08:29:43;;;;;;;;;;;;;;;;;;6292598;22;20326;-84
2022/08/22 08:32:18;;;;;;;;;;;;;;;;;;6267468;22;19925;-84
2022/08/22 08:34:58;;;;;;;;;;;;;;;;;;6267774;22;20326;-84
2022/08/22 08:37:39;;;;;;;;;;;;;;;;;;6292236;22;20042;-82
2022/08/22 08:40:41;;;;;;;;;;;;;;;;;;6245927;22;20370;-84
2022/08/22 08:46:30;;;;;;;;;;;;;;;;;;6228287;22;19926;-85
2022/08/22 08:52:29;;;;;;;;;;;;;;;;;;6178205;23;20296;-83
2022/08/22 08:55:19;;;;;;;;;;;;;;;;;;;;;
2022/08/22 08:58:23;;;;;;;;;;;;;;;;;;6140262;23;19979;-84
2022/08/22 09:00:54;;;;;;;;;;;;;;;;;;6129066;23;19916;-85
2022/08/22 09:03:23;;;;;;;;;;;;;;;;;;6176504;23;19920;-86
2022/08/22 09:09:34;;;;;;;;;;;;;;;;;;6237184;23;20256;-85
2022/08/22 09:12:01;;;;;;;;;;;;;;;;;;6222502;22;19930;-85
2022/08/22 09:23:35;;;;;;;;;;;;;;;;;;6111448;23;19921;-86
2022/08/22 09:32:02;;;;;;;;;;;;;;;;;;6288514;22;19953;-90
2022/08/22 09:34:28;;;;;;;;;;;;;;;;;;6293039;22;19975;-88
2022/08/22 09:36:55;;;;;;;;;;;;;;;;;;6297795;22;19919;-91
2022/08/22 09:39:21;;;;;;;;;;;;;;;;;;6275182;22;20392;-91
2022/08/22 09:41:47;;;;;;;;;;;;;;;;;;6269294;22;19918;-91
2022/08/22 09:44:13;;;;;;;;;;;;;;;;;;6269725;22;20335;-92
2022/08/22 09:46:39;;;;;;;;;;;;;;;;;;6293594;22;19918;-93
2022/08/22 09:49:05;;;;;;;;;;;;;;;;;;6270500;22;19919;-89
2022/08/22 09:51:33;;;;;;;;;;;;;;;;;;6294995;22;20358;-90
2022/08/22 09:53:59;;;;;;;;;;;;;;;;;;6297124;22;19918;-90
2022/08/22 09:56:25;;;;;;;;;;;;;;;;;;6267880;22;19957;-91
2022/08/22 09:58:51;;;;;;;;;;;;;;;;;;6270683;22;19915;-90
2022/08/22 10:01:17;;;;;;;;;;;;;;;;;;6296819;22;19930;-91
2022/08/22 10:03:43;;;;;;;;;;;;;;;;;;6268696;22;20235;-94
2022/08/22 10:06:09;;;;;;;;;;;;;;;;;;6255769;22;19919;-93
2022/08/22 10:08:35;;;;;;;;;;;;;;;;;;6261734;22;19915;-93
2022/08/22 10:11:01;;;;;;;;;;;;;;;;;;6239333;22;19919;-94
2022/08/22 10:13:28;;;;;;;;;;;;;;;;;;6238178;22;20040;-91
2022/08/22 10:15:55;;;;;;;;;;;;;;;;;;6241504;22;20327;-93
2022/08/22 10:18:23;;;;;;;;;;;;;;;;;;6241259;22;20384;-93
2022/08/22 10:21:08;;;;;;;;;;;;;;;;;;6269764;22;19925;-92
2022/08/22 10:23:36;;;;;;;;;;;;;;;;;;6238162;22;19923;-93
2022/08/22 10:26:03;;;;;;;;;;;;;;;;;;6267225;22;20027;-93
2022/08/22 10:28:31;;;;;;;;;;;;;;;;;;6238897;22;19915;-92
2022/08/22 10:30:57;;;;;;;;;;;;;;;;;;6231915;22;20479;-91
2022/08/22 10:33:23;;;;;;;;;;;;;;;;;;6233174;22;19923;-92
2022/08/22 10:35:50;;;;;;;;;;;;;;;;;;6230222;22;19916;-93
2022/08/22 10:38:17;;;;;;;;;;;;;;;;;;6207808;22;19998;-92
2022/08/22 10:40:43;;;;;;;;;;;;;;;;;;6200921;22;20588;-92
2022/08/22 10:43:10;;;;;;;;;;;;;;;;;;6206637;22;20650;-92
2022/08/22 10:48:29;;;;;;;;;;;;;;;;;;6249252;22;19923;-92
2022/08/22 10:51:09;;;;;;;;;;;;;;;;;;6237524;22;19955;-93
2022/08/22 10:59:45;;;;;;;;;;;;;;;;;;6234032;22;19950;-90
2022/08/22 11:02:31;;;;;;;;;;;;;;;;;;6208626;22;20247;-91
2022/08/22 11:05:16;;;;;;;;;;;;;;;;;;6192119;23;19920;-90
2022/08/22 11:08:05;;;;;;;;;;;;;;;;;;;;;
2022/08/22 11:22:29;;;;;;;;;;;;;;;;;;6322893;22;19922;-85
2022/08/22 11:24:58;;;;;;;;;;;;;;;;;;6321047;22;19957;-84
2022/08/22 11:27:24;;;;;;;;;;;;;;;;;;6293445;22;20359;-83
2022/08/22 11:29:50;;;;;;;;;;;;;;;;;;6299244;22;19918;-83
2022/08/22 11:32:16;;;;;;;;;;;;;;;;;;6298896;22;19925;-83
2022/08/22 11:34:42;;;;;;;;;;;;;;;;;;6264229;22;19918;-83
2022/08/22 11:37:08;;;;;;;;;;;;;;;;;;6267119;22;19957;-83
2022/08/22 11:39:35;;;;;;;;;;;;;;;;;;6260955;22;20192;-83
2022/08/22 11:42:04;;;;;;;;;;;;;;;;;;6293947;22;19945;-84
2022/08/22 11:44:30;;;;;;;;;;;;;;;;;;6291301;22;20398;-83
2022/08/22 11:47:00;;;;;;;;;;;;;;;;;;6267683;22;19957;-84
2022/08/22 11:49:37;;;;;;;;;;;;;;;;;;6232134;22;19920;-85
2022/08/22 11:52:40;;;;;;;;;;;;;;;;;;6210207;23;20347;-84
2022/08/22 11:58:01;;;;;;;;;;;;;;;;;;6202828;23;20014;-84
2022/08/22 12:00:33;;;;;;;;;;;;;;;;;;6223024;23;20572;-84
2022/08/22 12:08:48;;;;;;;;;;;;;;;;;;6319997;22;20359;-85
2022/08/22 12:14:22;;;;;;;;;;;;;;;;;;6304011;22;19918;-85
2022/08/22 12:16:57;;;;;;;;;;;;;;;;;;6324398;22;19918;-84
2022/08/22 12:19:29;;;;;;;;;;;;;;;;;;6263780;22;20173;-86
2022/08/22 12:22:06;;;;;;;;;;;;;;;;;;6269526;22;20320;-85
2022/08/22 12:24:36;;;;;;;;;;;;;;;;;;6294516;22;20203;-84
2022/08/22 12:27:04;;;;;;;;;;;;;;;;;;6265544;22;20315;-84
2022/08/22 12:30:26;;;;;;;;;;;;;;;;;;;;;
2022/08/22 12:32:32;;;;;;;;;;;;;;;;;;6193621;23;20010;-84
2022/08/22 12:50:22;;;;;;;;;;;;;;;;;;6155817;23;19951;-84
2022/08/22 12:52:55;;;;;;;;;;;;;;;;;;6170462;23;19966;-84
2022/08/22 12:55:32;;;;;;;;;;;;;;;;;;6142845;23;19920;-85
2022/08/22 12:57:58;;;;;;;;;;;;;;;;;;6194340;23;19916;-84
2022/08/22 13:00:44;;;;;;;;;;;;;;;;;;6144141;23;19927;-84
2022/08/22 13:03:10;;;;;;;;;;;;;;;;;;6145295;23;20149;-84
2022/08/22 13:05:39;;;;;;;;;;;;;;;;;;6176719;22;19951;-84
2022/08/22 13:08:18;;;;;;;;;;;;;;;;;;;;;
2022/08/22 13:13:41;;;;;;;;;;;;;;;;;;6287329;22;19993;-84
2022/08/22 13:19:02;;;;;;;;;;;;;;;;;;6289798;22;19965;-86
2022/08/22 13:21:31;;;;;;;;;;;;;;;;;;6259710;22;20030;-86
2022/08/22 13:24:07;;;;;;;;;;;;;;;;;;6304134;22;19941;-85
2022/08/22 13:26:43;;;;;;;;;;;;;;;;;;;;;
2022/08/22 13:29:16;;;;;;;;;;;;;;;;;;6264380;22;20442;-86
2022/08/22 13:31:57;;;;;;;;;;;;;;;;;;;;;
2022/08/22 13:37:39;;;;;;;;;;;;;;;;;;6281934;22;19923;-84
2022/08/22 13:40:05;;;;;;;;;;;;;;;;;;6262441;22;20377;-84
2022/08/22 13:48:39;;;;;;;;;;;;;;;;;;;;;
2022/08/22 13:51:05;;;;;;;;;;;;;;;;;;6264349;22;20532;-84
2022/08/22 13:53:34;;;;;;;;;;;;;;;;;;6265741;22;20362;-86
2022/08/22 14:18:26;;;;;;;;;;;;;;;;;;6208852;22;20224;-92
2022/08/22 14:21:01;;;;;;;;;;;;;;;;;;6271108;22;20009;-91
2022/08/22 14:23:28;;;;;;;;;;;;;;;;;;6266057;22;19949;-92
2022/08/22 14:25:57;;;;;;;;;;;;;;;;;;6273453;22;19930;-93
2022/08/22 14:29:02;;;;;;;;;;;;;;;;;;;;;
2022/08/22 14:31:31;;;;;;;;;;;;;;;;;;6296946;22;19915;-92
2022/08/22 14:33:57;;;;;;;;;;;;;;;;;;6274393;22;19919;-92
2022/08/22 14:36:25;;;;;;;;;;;;;;;;;;6273836;22;20007;-91
2022/08/22 14:39:04;;;;;;;;;;;;;;;;;;6336549;22;19919;-90
2022/08/22 14:41:32;;;;;;;;;;;;;;;;;;6270893;22;19923;-93
2022/08/22 14:44:23;;;;;;;;;;;;;;;;;;;;;
2022/08/22 14:46:56;;;;;;;;;;;;;;;;;;6303131;22;19919;-93
2022/08/22 14:49:26;;;;;;;;;;;;;;;;;;6257817;22;19965;-93
2022/08/22 14:51:53;;;;;;;;;;;;;;;;;;6266811;22;19946;-90
2022/08/22 14:57:37;;;;;;;;;;;;;;;;;;6263206;22;19991;-91
2022/08/22 15:00:12;;;;;;;;;;;;;;;;;;6244563;22;19946;-90
2022/08/22 15:02:59;;;;;;;;;;;;;;;;;;6243141;22;20311;-91
2022/08/22 15:08:19;;;;;;;;;;;;;;;;;;6226995;23;19929;-92
2022/08/22 15:10:57;;;;;;;;;;;;;;;;;;6222351;23;20247;-93
2022/08/22 15:13:23;;;;;;;;;;;;;;;;;;6175853;23;19959;-92
2022/08/22 15:15:52;;;;;;;;;;;;;;;;;;6179751;23;19958;-91
2022/08/22 15:18:18;;;;;;;;;;;;;;;;;;6111570;23;19924;-92
2022/08/22 15:20:47;;;;;;;;;;;;;;;;;;6083565;23;19925;-91
2022/08/22 15:23:19;;;;;;;;;;;;;;;;;;6060857;23;19925;-94
2022/08/22 15:26:05;;;;;;;;;;;;;;;;;;6061626;23;20468;-93
2022/08/22 15:31:23;;;;;;;;;;;;;;;;;;6077259;23;19920;-92
2022/08/22 15:40:09;;;;;;;;;;;;;;;;;;6176331;22;20542;-91
2022/08/22 15:42:35;;;;;;;;;;;;;;;;;;6268142;22;20015;-93
2022/08/22 15:45:01;;;;;;;;;;;;;;;;;;6298050;22;19949;-91
2022/08/22 15:47:31;;;;;;;;;;;;;;;;;;6269835;22;19918;-92
2022/08/22 15:49:57;;;;;;;;;;;;;;;;;;6272519;22;19958;-92
2022/08/22 15:52:23;;;;;;;;;;;;;;;;;;6276263;22;19922;-91
2022/08/22 15:54:49;;;;;;;;;;;;;;;;;;6272382;22;19921;-93
2022/08/22 15:57:20;;;;;;;;;;;;;;;;;;6276169;22;20318;-92
2022/08/22 15:59:54;;;;;;;;;;;;;;;;;;6271962;22;19988;-94
2022/08/22 16:02:23;;;;;;;;;;;;;;;;;;6272466;22;20471;-92
2022/08/22 16:04:49;;;;;;;;;;;;;;;;;;6271329;22;20300;-92
2022/08/22 16:07:15;;;;;;;;;;;;;;;;;;6247509;22;19919;-94
2022/08/22 16:09:41;;;;;;;;;;;;;;;;;;6239927;22;19915;-91
2022/08/22 16:12:07;;;;;;;;;;;;;;;;;;6243533;22;19925;-91
2022/08/22 16:14:35;;;;;;;;;;;;;;;;;;6240297;22;19965;-93
2022/08/22 16:17:02;;;;;;;;;;;;;;;;;;6265501;22;19922;-93
2022/08/22 16:19:28;;;;;;;;;;;;;;;;;;6267950;22;19919;-92
2022/08/22 16:21:54;;;;;;;;;;;;;;;;;;6265498;22;19972;-93
2022/08/22 16:24:20;;;;;;;;;;;;;;;;;;6240822;22;19962;-91
2022/08/22 16:26:49;;;;;;;;;;;;;;;;;;6239153;22;19919;-93
2022/08/22 16:29:17;;;;;;;;;;;;;;;;;;6269039;22;20239;-91
2022/08/22 16:31:43;;;;;;;;;;;;;;;;;;6238884;22;19923;-93
2022/08/22 16:34:09;;;;;;;;;;;;;;;;;;6267271;22;19921;-94
2022/08/22 16:36:41;;;;;;;;;;;;;;;;;;6240240;22;19995;-94
2022/08/22 16:39:07;;;;;;;;;;;;;;;;;;6266213;22;19923;-93
2022/08/22 16:41:33;;;;;;;;;;;;;;;;;;6236873;22;19919;-92
2022/08/22 16:44:02;;;;;;;;;;;;;;;;;;6284915;22;19899;-91
2022/08/22 16:46:31;;;;;;;;;;;;;;;;;;6259788;22;19953;-92
2022/08/22 16:48:57;;;;;;;;;;;;;;;;;;6262752;22;19926;-94
2022/08/22 16:51:23;;;;;;;;;;;;;;;;;;6245135;22;19964;-92
2022/08/22 16:53:50;;;;;;;;;;;;;;;;;;6246889;22;19969;-92
2022/08/22 16:56:16;;;;;;;;;;;;;;;;;;6283867;22;19919;-92
2022/08/22 16:58:42;;;;;;;;;;;;;;;;;;6263864;22;19922;-92
2022/08/22 17:01:08;;;;;;;;;;;;;;;;;;6269466;22;19942;-91
2022/08/22 17:03:34;;;;;;;;;;;;;;;;;;6248685;22;19919;-93
2022/08/22 17:06:00;;;;;;;;;;;;;;;;;;6265832;22;19926;-93
2022/08/22 17:08:26;;;;;;;;;;;;;;;;;;6243825;22;19919;-95
2022/08/22 17:10:54;;;;;;;;;;;;;;;;;;6294258;22;19926;-92
2022/08/22 17:13:20;;;;;;;;;;;;;;;;;;6267404;22;20271;-96
2022/08/22 17:15:46;;;;;;;;;;;;;;;;;;6242258;22;20335;-94
2022/08/22 17:18:12;;;;;;;;;;;;;;;;;;6239294;22;19918;-95
2022/08/22 17:20:38;;;;;;;;;;;;;;;;;;6240696;22;20029;-95
2022/08/22 17:23:04;;;;;;;;;;;;;;;;;;6237500;22;20243;-90
2022/08/22 17:25:33;;;;;;;;;;;;;;;;;;6236710;22;19926;-93
2022/08/22 17:27:59;;;;;;;;;;;;;;;;;;6260087;22;19922;-88
2022/08/22 17:30:26;;;;;;;;;;;;;;;;;;6263056;22;19926;-89
2022/08/22 17:32:52;;;;;;;;;;;;;;;;;;6262657;22;19919;-90
2022/08/22 17:35:18;;;;;;;;;;;;;;;;;;6295035;22;19918;-90
2022/08/22 17:37:44;;;;;;;;;;;;;;;;;;6290689;22;19930;-90
2022/08/22 17:40:11;;;;;;;;;;;;;;;;;;6293883;22;19919;-87
2022/08/22 17:42:37;;;;;;;;;;;;;;;;;;6287628;22;19931;-86
2022/08/22 17:45:03;;;;;;;;;;;;;;;;;;6263777;22;19968;-87
2022/08/22 17:47:29;;;;;;;;;;;;;;;;;;6287987;22;19946;-87
2022/08/22 17:49:55;;;;;;;;;;;;;;;;;;6258780;22;19918;-86
2022/08/22 17:52:21;;;;;;;;;;;;;;;;;;6263516;22;20278;-87
2022/08/22 17:54:47;;;;;;;;;;;;;;;;;;6261493;22;19948;-86
2022/08/22 17:57:13;;;;;;;;;;;;;;;;;;6290296;22;19918;-86
2022/08/22 17:59:39;;;;;;;;;;;;;;;;;;6287309;22;19922;-86
2022/08/22 18:02:05;;;;;;;;;;;;;;;;;;6285736;22;19930;-86
2022/08/22 18:04:32;;;;;;;;;;;;;;;;;;6287760;22;19968;-87
2022/08/22 18:06:58;;;;;;;;;;;;;;;;;;6289571;22;19950;-87
2022/08/22 18:09:24;;;;;;;;;;;;;;;;;;6289303;22;20397;-89
2022/08/22 18:11:50;;;;;;;;;;;;;;;;;;6290357;22;20276;-86
2022/08/22 18:14:15;;;;;;;;;;;;;;;;;;6291578;22;20244;-86
2022/08/22 18:16:41;;;;;;;;;;;;;;;;;;6287135;22;19990;-87
2022/08/22 18:19:07;;;;;;;;;;;;;;;;;;6289893;22;20244;-87
2022/08/22 18:21:33;;;;;;;;;;;;;;;;;;6286506;22;19919;-86
2022/08/22 18:23:59;;;;;;;;;;;;;;;;;;6291556;22;20362;-85
2022/08/22 18:26:25;;;;;;;;;;;;;;;;;;6262806;22;19923;-85
2022/08/22 18:28:51;;;;;;;;;;;;;;;;;;6289163;22;20322;-86
2022/08/22 18:31:17;;;;;;;;;;;;;;;;;;6290210;22;20638;-86
2022/08/22 18:33:43;;;;;;;;;;;;;;;;;;6292605;22;19966;-86
2022/08/22 18:36:09;;;;;;;;;;;;;;;;;;6266889;22;19926;-86
2022/08/22 18:38:35;;;;;;;;;;;;;;;;;;6292317;22;19919;-85
2022/08/22 18:41:01;;;;;;;;;;;;;;;;;;6291939;22;20706;-86
2022/08/22 18:43:27;;;;;;;;;;;;;;;;;;6287504;22;19934;-86
2022/08/22 18:45:53;;;;;;;;;;;;;;;;;;6292072;22;19918;-86
2022/08/22 18:48:19;;;;;;;;;;;;;;;;;;6291959;22;19919;-86
2022/08/22 18:50:46;;;;;;;;;;;;;;;;;;6290543;22;21080;-86
2022/08/22 18:53:12;;;;;;;;;;;;;;;;;;6292138;22;19918;-86
2022/08/22 18:55:38;;;;;;;;;;;;;;;;;;6291097;22;20083;-86
2022/08/22 18:58:04;;;;;;;;;;;;;;;;;;6263820;22;19918;-86
2022/08/22 19:00:30;;;;;;;;;;;;;;;;;;6291249;22;19919;-85
2022/08/22 19:02:56;;;;;;;;;;;;;;;;;;6293376;22;19945;-86
2022/08/22 19:05:22;;;;;;;;;;;;;;;;;;6292957;22;19915;-86
2022/08/22 19:07:49;;;;;;;;;;;;;;;;;;6285943;22;20393;-86
2022/08/22 19:10:15;;;;;;;;;;;;;;;;;;6264198;22;19950;-86
2022/08/22 19:12:41;;;;;;;;;;;;;;;;;;6287552;22;19942;-85
2022/08/22 19:15:07;;;;;;;;;;;;;;;;;;6289251;22;19918;-86
2022/08/22 19:17:33;;;;;;;;;;;;;;;;;;6287623;22;19941;-84
2022/08/22 19:22:44;;;;;;;;;;;;;;;;;;6285915;22;19969;-85
2022/08/22 19:25:10;;;;;;;;;;;;;;;;;;6291556;22;20330;-85
2022/08/22 19:27:39;;;;;;;;;;;;;;;;;;6288516;22;19918;-85
2022/08/22 19:30:05;;;;;;;;;;;;;;;;;;6239779;22;19915;-85
2022/08/22 19:32:31;;;;;;;;;;;;;;;;;;6261615;22;19918;-85
2022/08/22 19:34:57;;;;;;;;;;;;;;;;;;6238590;22;20591;-86
2022/08/22 19:37:23;;;;;;;;;;;;;;;;;;6265963;22;20260;-86
2022/08/22 19:39:49;;;;;;;;;;;;;;;;;;6238211;22;20336;-86
2022/08/22 19:42:15;;;;;;;;;;;;;;;;;;6238321;22;19930;-86
2022/08/22 19:44:41;;;;;;;;;;;;;;;;;;6265338;22;20386;-87
2022/08/22 19:47:07;;;;;;;;;;;;;;;;;;6239328;22;19929;-86
2022/08/22 19:49:33;;;;;;;;;;;;;;;;;;6236518;22;19926;-86
2022/08/22 19:52:00;;;;;;;;;;;;;;;;;;6267479;22;19915;-86
2022/08/22 19:54:26;;;;;;;;;;;;;;;;;;6260095;22;19923;-85
2022/08/22 19:56:51;;;;;;;;;;;;;;;;;;6260885;22;19919;-85
2022/08/22 19:59:19;;;;;;;;;;;;;;;;;;6261807;22;20695;-85
2022/08/22 20:01:45;;;;;;;;;;;;;;;;;;6237786;22;20048;-85
2022/08/22 20:04:11;;;;;;;;;;;;;;;;;;6263912;22;19966;-86
2022/08/22 20:06:43;;;;;;;;;;;;;;;;;;6264661;22;19964;-84
2022/08/22 20:18:12;;;;;;;;;;;;;;;;;;6309466;22;19923;-84
2022/08/22 20:24:10;;;;;;;;;;;;;;;;;;6091164;23;20322;-84
2022/08/22 20:26:47;;;;;;;;;;;;;;;;;;6126483;22;20003;-84
2022/08/22 20:29:49;;;;;;;;;;;;;;;;;;6296035;22;20032;-84
2022/08/22 20:32:28;;;;;;;;;;;;;;;;;;6267106;22;19989;-84
2022/08/22 20:34:56;;;;;;;;;;;;;;;;;;6269713;22;19918;-85
2022/08/22 20:43:29;;;;;;;;;;;;;;;;;;6333984;22;19983;-83
2022/08/22 20:45:58;;;;;;;;;;;;;;;;;;6296337;22;19918;-83
2022/08/22 20:48:24;;;;;;;;;;;;;;;;;;6260727;22;19919;-83
2022/08/22 20:50:57;;;;;;;;;;;;;;;;;;6264573;22;19999;-83
2022/08/22 20:56:46;;;;;;;;;;;;;;;;;;6110946;23;19920;-84
2022/08/22 20:59:12;;;;;;;;;;;;;;;;;;6244743;22;19918;-84
2022/08/22 21:01:38;;;;;;;;;;;;;;;;;;6265433;22;19919;-84
2022/08/22 21:12:32;;;;;;;;;;;;;;;;;;6263509;22;20283;-83
2022/08/22 21:15:01;;;;;;;;;;;;;;;;;;6239166;22;19925;-83
2022/08/22 21:17:43;;;;;;;;;;;;;;;;;;6259040;22;19915;-83
2022/08/22 21:20:22;;;;;;;;;;;;;;;;;;6269226;22;20043;-83
2022/08/22 21:23:07;;;;;;;;;;;;;;;;;;;;;
2022/08/22 21:26:00;;;;;;;;;;;;;;;;;;6232250;22;19997;-87
2022/08/22 21:28:39;;;;;;;;;;;;;;;;;;;;;
2022/08/22 21:31:05;;;;;;;;;;;;;;;;;;6268420;22;20391;-87
2022/08/22 21:33:32;;;;;;;;;;;;;;;;;;6266485;22;20290;-87
2022/08/22 21:50:37;;;;;;;;;;;;;;;;;;6237036;22;20028;-83
2022/08/22 21:53:03;;;;;;;;;;;;;;;;;;6210178;22;19930;-84
2022/08/22 21:55:30;;;;;;;;;;;;;;;;;;6208460;22;19926;-84
2022/08/22 21:58:13;;;;;;;;;;;;;;;;;;6235861;22;20324;-84
2022/08/22 22:00:39;;;;;;;;;;;;;;;;;;6208775;22;20057;-84
2022/08/22 22:03:06;;;;;;;;;;;;;;;;;;6213599;22;20327;-84
2022/08/22 22:08:43;;;;;;;;;;;;;;;;;;6161342;22;19921;-84
2022/08/22 22:14:15;;;;;;;;;;;;;;;;;;6265816;22;19923;-84
2022/08/22 22:16:41;;;;;;;;;;;;;;;;;;6235175;22;19942;-84
2022/08/22 22:19:07;;;;;;;;;;;;;;;;;;6238076;22;20349;-84
2022/08/22 22:21:33;;;;;;;;;;;;;;;;;;6210766;22;19978;-83
2022/08/22 22:27:13;;;;;;;;;;;;;;;;;;6150396;23;20007;-84
2022/08/22 22:33:18;;;;;;;;;;;;;;;;;;;;;
2022/08/22 22:36:26;;;;;;;;;;;;;;;;;;;;;
2022/08/22 23:06:59;;;;;;;;;;;;;;;;;;;;;
2022/08/22 23:10:13;;;;;;;;;;;;;;;;;;6227975;23;19923;-84
2022/08/22 23:12:50;;;;;;;;;;;;;;;;;;6232897;23;19920;-85
2022/08/22 23:18:17;;;;;;;;;;;;;;;;;;;;;
2022/08/22 23:20:46;;;;;;;;;;;;;;;;;;6209000;23;20352;-85
2022/08/22 23:26:15;;;;;;;;;;;;;;;;;;6216991;22;19989;-84
2022/08/22 23:31:17;;;;;;;;;;;;;;;;;;6246471;22;20332;-84
2022/08/22 23:33:43;;;;;;;;;;;;;;;;;;6212872;22;19919;-84
2022/08/22 23:36:12;;;;;;;;;;;;;;;;;;6240590;22;19942;-84
2022/08/22 23:42:09;;;;;;;;;;;;;;;;;;;;;
2022/08/22 23:45:09;;;;;;;;;;;;;;;;;;6276118;22;20371;-84
2022/08/22 23:47:37;;;;;;;;;;;;;;;;;;6209353;22;19919;-84
2022/08/22 23:50:18;;;;;;;;;;;;;;;;;;6212530;22;19942;-84
2022/08/22 23:56:13;;;;;;;;;;;;;;;;;;6157908;23;20491;-84
